createdAt,value
2023-05-18T00:01:12.412Z,10.90
2023-05-18T00:03:39.443Z,11.00
2023-05-18T00:06:07.272Z,11.10
2023-05-18T00:08:34.899Z,11.00
2023-05-18T00:11:06.039Z,10.80
2023-05-18T00:13:32.980Z,10.80
2023-05-18T00:16:00.631Z,10.60
2023-05-18T00:18:28.122Z,10.60
2023-05-18T00:20:58.651Z,10.70
2023-05-18T00:23:29.660Z,10.70
2023-05-18T00:26:00.682Z,10.70
2023-05-18T00:28:27.730Z,10.80
2023-05-18T00:30:55.007Z,10.80
2023-05-18T00:33:22.451Z,10.70
2023-05-18T00:35:49.273Z,10.70
2023-05-18T00:38:16.147Z,10.70
2023-05-18T00:40:43.217Z,10.70
2023-05-18T00:43:10.201Z,10.60
2023-05-18T00:45:36.944Z,10.70
2023-05-18T00:48:04.076Z,10.70
2023-05-18T00:50:30.852Z,10.70
2023-05-18T00:52:57.795Z,10.70
2023-05-18T00:55:24.502Z,10.70
2023-05-18T00:57:51.720Z,10.70
2023-05-18T01:00:20.582Z,10.70
2023-05-18T01:02:47.469Z,10.70
2023-05-18T01:05:14.236Z,10.70
2023-05-18T01:07:44.626Z,10.70
2023-05-18T01:10:13.303Z,10.70
2023-05-18T01:12:51.067Z,10.60
2023-05-18T01:15:32.969Z,10.60
2023-05-18T01:18:05.362Z,10.60
2023-05-18T01:20:40.956Z,10.50
2023-05-18T01:23:45.068Z,10.50
2023-05-18T01:26:37.184Z,10.60
2023-05-18T01:29:10.097Z,10.50
2023-05-18T01:31:37.148Z,10.50
2023-05-18T01:34:03.819Z,10.50
2023-05-18T01:36:31.479Z,10.60
2023-05-18T01:39:01.585Z,10.50
2023-05-18T01:41:29.726Z,10.50
2023-05-18T01:44:17.960Z,10.50
2023-05-18T01:46:49.503Z,10.50
2023-05-18T01:49:45.654Z,10.40
2023-05-18T01:52:19.478Z,10.40
2023-05-18T01:54:52.418Z,10.40
2023-05-18T01:57:23.054Z,10.40
2023-05-18T01:59:51.088Z,10.30
2023-05-18T02:02:18.184Z,10.30
2023-05-18T02:04:44.861Z,10.30
2023-05-18T02:07:11.448Z,10.20
2023-05-18T02:09:38.157Z,10.20
2023-05-18T02:12:05.370Z,10.20
2023-05-18T02:14:32.325Z,10.10
2023-05-18T02:16:59.486Z,10.00
2023-05-18T02:19:26.478Z,10.00
2023-05-18T02:21:53.185Z,10.00
2023-05-18T02:24:19.896Z,10.00
2023-05-18T02:26:46.585Z,10.00
2023-05-18T02:29:14.439Z,9.90
2023-05-18T02:31:41.441Z,9.90
2023-05-18T02:34:09.044Z,9.80
2023-05-18T02:36:40.518Z,9.80
2023-05-18T02:39:07.662Z,9.80
2023-05-18T02:41:34.823Z,9.70
2023-05-18T02:44:04.324Z,9.70
2023-05-18T02:46:31.486Z,9.70
2023-05-18T02:48:58.951Z,9.70
2023-05-18T02:51:25.870Z,9.70
2023-05-18T02:53:52.512Z,9.70
2023-05-18T02:56:19.151Z,9.60
2023-05-18T02:58:45.774Z,9.60
2023-05-18T03:01:12.590Z,9.60
2023-05-18T03:03:39.726Z,9.60
2023-05-18T03:06:08.165Z,9.60
2023-05-18T03:08:37.049Z,9.70
2023-05-18T03:11:03.938Z,9.70
2023-05-18T03:13:30.687Z,9.70
2023-05-18T03:15:57.668Z,9.80
2023-05-18T03:18:25.564Z,9.70
2023-05-18T03:20:52.637Z,9.70
2023-05-18T03:23:20.169Z,9.70
2023-05-18T03:25:46.880Z,9.80
2023-05-18T03:28:13.543Z,9.80
2023-05-18T03:30:40.435Z,9.70
2023-05-18T03:33:07.266Z,9.70
2023-05-18T03:35:34.085Z,9.70
2023-05-18T03:38:00.815Z,9.70
2023-05-18T03:40:27.448Z,9.70
2023-05-18T03:42:54.137Z,9.70
2023-05-18T03:45:21.014Z,9.60
2023-05-18T03:47:47.844Z,9.50
2023-05-18T03:50:14.658Z,9.60
2023-05-18T03:52:44.576Z,9.60
2023-05-18T03:55:12.042Z,9.60
2023-05-18T03:57:38.978Z,9.60
2023-05-18T04:00:12.991Z,9.60
2023-05-18T04:02:40.144Z,9.60
2023-05-18T04:05:07.906Z,9.60
2023-05-18T04:07:34.720Z,9.60
2023-05-18T04:10:01.383Z,9.60
2023-05-18T04:12:28.091Z,9.70
2023-05-18T04:14:54.759Z,9.60
2023-05-18T04:17:24.479Z,9.70
2023-05-18T04:19:51.169Z,9.70
2023-05-18T04:22:18.569Z,9.70
2023-05-18T04:24:47.859Z,9.70
2023-05-18T04:27:15.175Z,9.70
2023-05-18T04:29:44.090Z,9.70
2023-05-18T04:32:11.040Z,9.70
2023-05-18T04:34:38.096Z,9.70
2023-05-18T04:37:05.771Z,9.70
2023-05-18T04:39:34.630Z,9.70
2023-05-18T04:42:01.943Z,9.60
2023-05-18T04:44:28.756Z,9.70
2023-05-18T04:46:56.176Z,9.70
2023-05-18T04:49:23.128Z,9.60
2023-05-18T04:51:50.796Z,9.60
2023-05-18T04:54:17.438Z,9.60
2023-05-18T04:56:44.103Z,9.60
2023-05-18T04:59:10.904Z,9.70
2023-05-18T05:01:37.722Z,9.70
2023-05-18T05:04:06.222Z,9.80
2023-05-18T05:06:32.962Z,9.80
2023-05-18T05:08:59.569Z,9.80
2023-05-18T05:11:26.287Z,9.80
2023-05-18T05:13:53.073Z,9.80
2023-05-18T05:16:19.783Z,9.80
2023-05-18T05:18:47.378Z,9.80
2023-05-18T05:21:14.282Z,9.70
2023-05-18T05:23:41.317Z,9.70
2023-05-18T05:26:07.941Z,9.70
2023-05-18T05:28:34.588Z,9.60
2023-05-18T05:31:01.294Z,9.60
2023-05-18T05:33:27.984Z,9.60
2023-05-18T05:35:54.696Z,9.60
2023-05-18T05:38:21.358Z,9.60
2023-05-18T05:40:48.097Z,9.70
2023-05-18T05:43:14.772Z,9.70
2023-05-18T05:45:43.501Z,9.70
2023-05-18T05:48:12.701Z,9.80
2023-05-18T05:50:40.424Z,9.60
2023-05-18T05:53:07.214Z,9.60
2023-05-18T05:55:37.725Z,9.50
2023-05-18T05:58:05.333Z,9.50
2023-05-18T06:00:31.959Z,9.50
2023-05-18T06:02:58.949Z,9.60
2023-05-18T06:05:25.909Z,9.60
2023-05-18T06:07:52.712Z,9.70
2023-05-18T06:10:19.501Z,9.80
2023-05-18T06:12:46.151Z,9.90
2023-05-18T06:15:13.125Z,9.90
2023-05-18T06:17:40.154Z,9.70
2023-05-18T06:20:07.684Z,9.80
2023-05-18T06:22:34.835Z,9.80
2023-05-18T06:25:01.533Z,9.80
2023-05-18T06:27:28.185Z,9.70
2023-05-18T06:29:54.785Z,9.70
2023-05-18T06:32:21.454Z,9.70
2023-05-18T06:34:50.522Z,9.60
2023-05-18T06:37:18.178Z,9.70
2023-05-18T06:39:44.864Z,9.80
2023-05-18T06:42:11.641Z,9.70
2023-05-18T06:44:38.529Z,9.70
2023-05-18T06:47:05.764Z,9.70
2023-05-18T06:49:32.695Z,9.80
2023-05-18T06:51:59.340Z,9.80
2023-05-18T06:54:25.975Z,9.80
2023-05-18T06:56:52.627Z,9.80
2023-05-18T06:59:19.292Z,9.80
2023-05-18T07:01:46.175Z,9.90
2023-05-18T07:04:13.168Z,10.00
2023-05-18T07:06:39.932Z,10.00
2023-05-18T07:09:07.956Z,10.10
2023-05-18T07:11:34.934Z,10.30
2023-05-18T07:14:01.649Z,10.30
2023-05-18T07:16:28.367Z,10.30
2023-05-18T07:18:58.754Z,10.30
2023-05-18T07:21:26.228Z,10.30
2023-05-18T07:23:53.018Z,10.40
2023-05-18T07:26:19.954Z,10.40
2023-05-18T07:28:47.694Z,10.40
2023-05-18T07:31:16.305Z,10.50
2023-05-18T07:33:44.366Z,10.60
2023-05-18T07:36:11.134Z,10.70
2023-05-18T07:38:37.809Z,10.70
2023-05-18T07:41:04.540Z,10.70
2023-05-18T07:43:31.399Z,10.70
2023-05-18T07:45:58.169Z,10.70
2023-05-18T07:48:24.941Z,10.60
2023-05-18T07:50:51.646Z,10.70
2023-05-18T07:53:18.576Z,10.80
2023-05-18T07:55:45.642Z,10.80
2023-05-18T07:58:13.235Z,10.80
2023-05-18T08:00:39.930Z,10.80
2023-05-18T08:03:06.971Z,10.90
2023-05-18T08:05:34.035Z,10.90
2023-05-18T08:08:00.833Z,11.00
2023-05-18T08:10:27.476Z,11.10
2023-05-18T08:12:54.137Z,11.10
2023-05-18T08:15:20.857Z,11.10
2023-05-18T08:17:47.631Z,11.20
2023-05-18T08:20:14.423Z,11.00
2023-05-18T08:22:41.060Z,11.10
2023-05-18T08:25:10.197Z,11.20
2023-05-18T08:27:36.945Z,11.20
2023-05-18T08:30:03.791Z,11.40
2023-05-18T08:32:30.565Z,11.40
2023-05-18T08:34:57.283Z,11.40
2023-05-18T08:37:29.127Z,11.50
2023-05-18T08:39:56.004Z,11.60
2023-05-18T08:42:41.616Z,11.60
2023-05-18T08:45:43.971Z,11.70
2023-05-18T08:48:12.793Z,11.70
2023-05-18T08:50:42.665Z,11.80
2023-05-18T08:53:11.607Z,11.80
2023-05-18T08:55:39.394Z,11.80
2023-05-18T08:58:08.191Z,11.80
2023-05-18T09:00:35.888Z,11.80
2023-05-18T09:03:04.926Z,11.80
2023-05-18T09:05:32.298Z,11.90
2023-05-18T09:08:00.432Z,11.90
2023-05-18T09:10:27.785Z,11.90
2023-05-18T09:12:56.019Z,11.90
2023-05-18T09:15:25.110Z,11.90
2023-05-18T09:17:52.048Z,12.00
2023-05-18T09:20:20.057Z,12.10
2023-05-18T09:22:49.323Z,12.20
2023-05-18T09:25:17.670Z,12.30
2023-05-18T09:27:44.299Z,12.30
2023-05-18T09:30:11.764Z,12.30
2023-05-18T09:32:38.940Z,12.30
2023-05-18T09:35:07.576Z,12.30
2023-05-18T09:37:35.175Z,12.40
2023-05-18T09:40:08.042Z,12.40
2023-05-18T09:42:42.998Z,12.40
2023-05-18T09:45:23.791Z,12.30
2023-05-18T09:47:51.185Z,12.40
2023-05-18T09:50:21.821Z,12.30
2023-05-18T09:52:52.110Z,12.30
2023-05-18T09:55:20.013Z,12.30
2023-05-18T09:57:49.214Z,12.30
2023-05-18T10:00:17.479Z,12.30
2023-05-18T10:02:52.178Z,12.40
2023-05-18T10:05:20.328Z,12.50
2023-05-18T10:07:47.230Z,12.60
2023-05-18T10:10:18.827Z,12.70
2023-05-18T10:12:45.648Z,12.80
2023-05-18T10:15:16.881Z,12.90
2023-05-18T10:17:45.567Z,12.80
2023-05-18T10:20:17.607Z,12.80
2023-05-18T10:22:48.989Z,12.60
2023-05-18T10:25:25.542Z,12.80
2023-05-18T10:27:58.177Z,13.00
2023-05-18T10:30:26.361Z,13.00
2023-05-18T10:32:56.673Z,13.00
2023-05-18T10:35:24.046Z,13.00
2023-05-18T10:37:53.172Z,13.10
2023-05-18T10:40:21.269Z,13.00
2023-05-18T10:42:50.660Z,13.20
2023-05-18T10:45:17.784Z,13.30
2023-05-18T10:47:44.707Z,13.40
2023-05-18T10:50:12.678Z,13.60
2023-05-18T10:52:41.485Z,13.50
2023-05-18T10:55:08.849Z,13.60
2023-05-18T10:57:40.737Z,13.60
2023-05-18T11:00:10.631Z,13.70
2023-05-18T11:02:42.435Z,13.70
2023-05-18T11:05:11.010Z,13.60
2023-05-18T11:07:38.556Z,13.70
2023-05-18T11:10:10.055Z,13.70
2023-05-18T11:12:38.817Z,13.80
2023-05-18T11:15:06.113Z,13.80
2023-05-18T11:17:33.035Z,13.80
2023-05-18T11:20:09.239Z,13.80
2023-05-18T11:22:50.120Z,13.90
2023-05-18T11:25:28.870Z,13.80
2023-05-18T11:28:05.497Z,13.80
2023-05-18T11:30:36.374Z,13.90
2023-05-18T11:33:15.967Z,14.00
2023-05-18T11:35:55.945Z,13.90
2023-05-18T11:38:23.463Z,14.10
2023-05-18T11:40:51.211Z,14.20
2023-05-18T11:43:25.139Z,14.20
2023-05-18T11:45:59.579Z,14.30
2023-05-18T11:48:30.125Z,14.40
2023-05-18T11:50:57.107Z,14.50
2023-05-18T11:53:25.643Z,14.40
2023-05-18T11:55:56.575Z,14.30
2023-05-18T11:58:26.487Z,14.30
2023-05-18T12:00:54.399Z,14.10
2023-05-18T12:03:26.152Z,14.00
2023-05-18T12:05:53.586Z,14.10
2023-05-18T12:08:20.854Z,14.20
2023-05-18T12:10:50.523Z,14.20
2023-05-18T12:13:17.815Z,14.40
2023-05-18T12:15:45.547Z,14.60
2023-05-18T12:18:12.435Z,14.70
2023-05-18T12:20:40.230Z,14.50
2023-05-18T12:23:06.930Z,14.40
2023-05-18T12:25:33.954Z,14.30
2023-05-18T12:28:02.042Z,14.30
2023-05-18T12:30:34.836Z,14.20
2023-05-18T12:33:02.523Z,14.30
2023-05-18T12:35:30.361Z,14.40
2023-05-18T12:38:02.504Z,14.20
2023-05-18T12:40:46.587Z,14.20
2023-05-18T12:43:13.415Z,14.40
2023-05-18T12:45:41.312Z,14.30
2023-05-18T12:48:09.594Z,14.30
2023-05-18T12:50:38.610Z,14.40
2023-05-18T12:53:05.329Z,14.40
2023-05-18T12:55:33.239Z,14.80
2023-05-18T12:58:04.428Z,14.90
2023-05-18T13:00:38.040Z,14.70
2023-05-18T13:03:10.281Z,14.70
2023-05-18T13:05:39.689Z,14.50
2023-05-18T13:08:06.360Z,14.50
2023-05-18T13:10:34.112Z,14.70
2023-05-18T13:13:03.678Z,14.90
2023-05-18T13:15:35.618Z,14.90
2023-05-18T13:18:04.593Z,15.10
2023-05-18T13:20:43.410Z,15.10
2023-05-18T13:23:15.056Z,15.20
2023-05-18T13:25:42.435Z,14.80
2023-05-18T13:28:11.134Z,14.90
2023-05-18T13:30:38.586Z,15.00
2023-05-18T13:33:08.128Z,15.00
2023-05-18T13:35:36.083Z,15.00
2023-05-18T13:38:02.852Z,15.10
2023-05-18T13:40:29.604Z,15.10
2023-05-18T13:42:56.240Z,15.20
2023-05-18T13:45:23.062Z,15.20
2023-05-18T13:47:51.770Z,15.30
2023-05-18T13:50:19.120Z,15.40
2023-05-18T13:52:47.296Z,15.40
2023-05-18T13:55:14.012Z,15.40
2023-05-18T13:57:41.005Z,15.30
2023-05-18T14:00:14.377Z,15.00
2023-05-18T14:02:42.715Z,14.90
2023-05-18T14:05:10.884Z,14.80
2023-05-18T14:07:38.746Z,14.60
2023-05-18T14:10:06.396Z,14.60
2023-05-18T14:12:33.797Z,14.70
2023-05-18T14:15:01.406Z,14.60
2023-05-18T14:17:29.796Z,14.60
2023-05-18T14:19:57.522Z,14.60
2023-05-18T14:22:26.030Z,14.50
2023-05-18T14:24:53.354Z,14.60
2023-05-18T14:27:20.529Z,14.70
2023-05-18T14:29:47.649Z,14.70
2023-05-18T14:32:14.397Z,14.70
2023-05-18T14:34:41.196Z,14.70
2023-05-18T14:37:07.866Z,14.70
2023-05-18T14:39:34.731Z,14.70
2023-05-18T14:42:01.493Z,14.80
2023-05-18T14:44:28.128Z,14.90
2023-05-18T14:46:54.781Z,14.90
2023-05-18T14:49:21.463Z,14.90
2023-05-18T14:51:48.072Z,15.10
2023-05-18T14:54:14.986Z,15.10
2023-05-18T14:56:41.807Z,15.00
2023-05-18T14:59:08.565Z,15.00
2023-05-18T15:01:35.427Z,14.90
2023-05-18T15:04:02.223Z,14.70
2023-05-18T15:06:29.194Z,14.70
2023-05-18T15:08:56.175Z,14.60
2023-05-18T15:11:22.878Z,14.50
2023-05-18T15:13:49.872Z,14.40
2023-05-18T15:16:19.498Z,14.40
2023-05-18T15:18:46.720Z,14.40
2023-05-18T15:21:13.560Z,14.30
2023-05-18T15:23:40.407Z,14.40
2023-05-18T15:26:09.139Z,14.40
2023-05-18T15:28:36.050Z,14.50
2023-05-18T15:31:02.655Z,14.50
2023-05-18T15:33:29.259Z,14.50
2023-05-18T15:35:55.908Z,14.60
2023-05-18T15:38:22.545Z,14.50
2023-05-18T15:40:50.471Z,14.40
2023-05-18T15:43:17.402Z,14.40
2023-05-18T15:45:47.467Z,14.50
2023-05-18T15:48:14.187Z,14.60
2023-05-18T15:50:41.057Z,14.60
2023-05-18T15:53:07.831Z,14.50
2023-05-18T15:55:34.599Z,14.50
2023-05-18T15:58:02.293Z,14.60
2023-05-18T16:00:29.559Z,14.50
2023-05-18T16:02:56.347Z,14.50
2023-05-18T16:05:23.062Z,14.50
2023-05-18T16:07:49.824Z,14.50
2023-05-18T16:10:16.502Z,14.40
2023-05-18T16:12:43.176Z,14.50
2023-05-18T16:15:10.223Z,14.50
2023-05-18T16:17:36.943Z,14.50
2023-05-18T16:20:04.196Z,14.40
2023-05-18T16:22:31.247Z,14.40
2023-05-18T16:24:58.961Z,14.50
2023-05-18T16:27:25.890Z,14.50
2023-05-18T16:29:52.877Z,14.40
2023-05-18T16:32:19.585Z,14.50
2023-05-18T16:34:46.316Z,14.60
2023-05-18T16:37:13.020Z,14.60
2023-05-18T16:39:39.660Z,14.70
2023-05-18T16:42:07.597Z,14.80
2023-05-18T16:44:36.158Z,14.70
2023-05-18T16:47:04.317Z,14.70
2023-05-18T16:49:30.981Z,14.70
2023-05-18T16:51:57.639Z,14.60
2023-05-18T16:54:24.368Z,14.50
2023-05-18T16:56:51.873Z,14.50
2023-05-18T16:59:18.640Z,14.50
2023-05-18T17:01:45.352Z,14.50
2023-05-18T17:04:12.242Z,14.50
2023-05-18T17:06:39.055Z,14.40
2023-05-18T17:09:06.566Z,14.40
2023-05-18T17:11:33.526Z,14.50
2023-05-18T17:14:01.440Z,14.40
2023-05-18T17:16:28.436Z,14.40
2023-05-18T17:18:55.974Z,14.30
2023-05-18T17:21:23.849Z,14.30
2023-05-18T17:23:50.684Z,14.30
2023-05-18T17:26:17.454Z,14.30
2023-05-18T17:28:44.086Z,14.40
2023-05-18T17:31:10.847Z,14.40
2023-05-18T17:33:37.589Z,14.40
2023-05-18T17:36:04.471Z,14.40
2023-05-18T17:38:31.155Z,14.30
2023-05-18T17:40:57.801Z,14.20
2023-05-18T17:43:24.526Z,14.10
2023-05-18T17:45:51.185Z,14.20
2023-05-18T17:48:17.906Z,14.20
2023-05-18T17:50:45.381Z,14.20
2023-05-18T17:53:12.305Z,14.30
2023-05-18T17:55:39.380Z,14.30
2023-05-18T17:58:06.343Z,14.40
2023-05-18T18:00:33.350Z,14.40
2023-05-18T18:03:00.472Z,14.30
2023-05-18T18:05:27.252Z,14.30
2023-05-18T18:07:54.158Z,14.40
2023-05-18T18:10:21.341Z,14.40
2023-05-18T18:12:47.956Z,14.40
2023-05-18T18:15:14.630Z,14.40
2023-05-18T18:17:41.820Z,14.40
2023-05-18T18:20:09.735Z,14.40
2023-05-18T18:22:36.562Z,14.40
2023-05-18T18:25:03.402Z,14.40
2023-05-18T18:27:30.173Z,14.40
2023-05-18T18:29:56.900Z,14.40
2023-05-18T18:32:23.537Z,14.40
2023-05-18T18:34:51.056Z,14.30
2023-05-18T18:37:17.680Z,14.30
2023-05-18T18:39:44.323Z,14.20
2023-05-18T18:42:11.478Z,14.30
2023-05-18T18:44:38.328Z,14.30
2023-05-18T18:47:05.156Z,14.30
2023-05-18T18:49:31.849Z,14.30
2023-05-18T18:51:58.911Z,14.40
2023-05-18T18:54:26.258Z,14.40
2023-05-18T18:56:53.039Z,14.30
2023-05-18T18:59:19.838Z,14.30
2023-05-18T19:01:46.718Z,14.40
2023-05-18T19:04:13.606Z,14.30
2023-05-18T19:06:40.316Z,14.30
2023-05-18T19:09:07.329Z,14.40
2023-05-18T19:11:33.983Z,14.40
2023-05-18T19:14:00.911Z,14.40
2023-05-18T19:16:27.621Z,14.40
2023-05-18T19:18:54.320Z,14.30
2023-05-18T19:21:21.436Z,14.20
2023-05-18T19:23:48.070Z,14.20
2023-05-18T19:26:14.747Z,14.20
2023-05-18T19:28:42.058Z,14.20
2023-05-18T19:31:11.773Z,14.20
2023-05-18T19:33:38.495Z,14.20
2023-05-18T19:36:05.400Z,14.20
2023-05-18T19:38:32.037Z,14.30
2023-05-18T19:40:58.645Z,14.30
2023-05-18T19:43:25.359Z,14.20
2023-05-18T19:45:52.136Z,14.20
2023-05-18T19:48:18.844Z,14.20
2023-05-18T19:50:45.501Z,14.20
2023-05-18T19:53:12.158Z,14.20
2023-05-18T19:55:38.864Z,14.30
2023-05-18T19:58:05.734Z,14.20
2023-05-18T20:00:33.429Z,14.20
2023-05-18T20:03:03.572Z,14.20
2023-05-18T20:05:30.336Z,14.10
2023-05-18T20:07:58.081Z,14.10
2023-05-18T20:10:37.689Z,14.10
2023-05-18T20:13:06.478Z,14.10
2023-05-18T20:15:36.682Z,14.10
2023-05-18T20:18:06.614Z,14.00
2023-05-18T20:20:35.835Z,14.00
2023-05-18T20:23:03.502Z,14.00
2023-05-18T20:25:34.762Z,13.90
2023-05-18T20:28:03.136Z,13.90
2023-05-18T20:30:30.710Z,13.90
2023-05-18T20:33:00.337Z,14.00
2023-05-18T20:35:27.072Z,14.00
2023-05-18T20:37:57.460Z,14.00
2023-05-18T20:40:24.386Z,13.90
2023-05-18T20:42:54.170Z,13.90
2023-05-18T20:45:29.330Z,13.80
2023-05-18T20:47:56.820Z,13.90
2023-05-18T20:50:23.851Z,13.80
2023-05-18T20:52:51.848Z,13.90
2023-05-18T20:55:19.439Z,13.90
2023-05-18T20:57:48.827Z,13.90
2023-05-18T21:00:17.008Z,14.00
2023-05-18T21:02:44.985Z,13.90
2023-05-18T21:05:12.664Z,13.90
2023-05-18T21:07:40.114Z,13.90
2023-05-18T21:10:08.296Z,13.90
2023-05-18T21:12:35.030Z,13.90
2023-05-18T21:15:02.041Z,13.90
2023-05-18T21:17:28.722Z,13.90
2023-05-18T21:19:55.533Z,13.90
2023-05-18T21:22:22.199Z,14.00
2023-05-18T21:24:48.887Z,13.90
2023-05-18T21:27:15.923Z,13.90
2023-05-18T21:29:42.577Z,13.90
2023-05-18T21:32:09.659Z,13.90
2023-05-18T21:34:36.407Z,13.80
2023-05-18T21:37:03.111Z,13.80
2023-05-18T21:39:30.256Z,13.80
2023-05-18T21:41:56.946Z,13.70
2023-05-18T21:44:23.616Z,13.70
2023-05-18T21:46:55.003Z,13.70
2023-05-18T21:49:21.638Z,13.70
2023-05-18T21:51:48.285Z,13.80
2023-05-18T21:54:14.958Z,13.70
2023-05-18T21:56:42.084Z,13.70
2023-05-18T21:59:08.793Z,13.70
2023-05-18T22:01:35.819Z,13.70
2023-05-18T22:04:02.715Z,13.70
2023-05-18T22:06:29.410Z,13.70
2023-05-18T22:08:56.012Z,13.70
2023-05-18T22:11:22.680Z,13.70
2023-05-18T22:13:49.423Z,13.70
2023-05-18T22:16:16.261Z,13.70
2023-05-18T22:18:42.989Z,13.70
2023-05-18T22:21:09.755Z,13.70
2023-05-18T22:23:37.264Z,13.70
2023-05-18T22:26:03.986Z,13.70
2023-05-18T22:28:30.922Z,13.70
2023-05-18T22:30:57.536Z,13.70
2023-05-18T22:33:24.914Z,13.60
2023-05-18T22:35:51.561Z,13.70
2023-05-18T22:38:18.201Z,13.60
2023-05-18T22:40:45.397Z,13.50
2023-05-18T22:43:12.308Z,13.50
2023-05-18T22:45:39.102Z,13.40
2023-05-18T22:48:05.924Z,13.40
2023-05-18T22:50:32.898Z,13.40
2023-05-18T22:53:02.168Z,13.30
2023-05-18T22:55:29.003Z,13.40
2023-05-18T22:57:55.643Z,13.30
2023-05-18T23:00:22.583Z,13.40
2023-05-18T23:02:49.276Z,13.40
2023-05-18T23:05:17.123Z,13.50
2023-05-18T23:07:43.928Z,13.40
2023-05-18T23:10:11.803Z,13.50
2023-05-18T23:12:39.459Z,13.50
2023-05-18T23:15:07.047Z,13.50
2023-05-18T23:17:34.109Z,13.40
2023-05-18T23:20:08.187Z,13.50
2023-05-18T23:22:35.085Z,13.40
2023-05-18T23:25:04.192Z,13.40
2023-05-18T23:27:31.243Z,13.50
2023-05-18T23:29:57.880Z,13.50
2023-05-18T23:32:25.117Z,13.30
2023-05-18T23:34:56.254Z,13.30
2023-05-18T23:37:24.665Z,13.20
2023-05-18T23:39:52.087Z,13.20
2023-05-18T23:42:24.522Z,13.20
2023-05-18T23:44:51.458Z,13.20
2023-05-18T23:47:18.645Z,13.10
2023-05-18T23:49:46.450Z,13.10
2023-05-18T23:52:16.048Z,13.10
2023-05-18T23:54:45.354Z,13.10
2023-05-18T23:57:12.370Z,13.00
2023-05-18T23:59:40.357Z,13.00
